Wednesday, November 21, 2018, 10:40 AM GMT
Back to Local

CWVQ, Ste Anne De Bell 1

Location: , , Canada Lat: 45.433
Local Time: 10:40 AM GMT (10:40 GMT) Lon: -73.933
Time Zone: GMT Elev: 127 ft

Show me the last for .
Show Coded

Time T Td Feel RH Dir Speed Gust Alt SLP Vis Weather Sky Remarks
2018-11-21 10:00 18 13 - 80 180° 2 - - 29.89 0 None
2018-11-21 09:00 18 13 10 78 210° 6 - - 29.91 0 None
2018-11-21 08:00 20 14 12 77 260° 6 - - 29.93 0 None
2018-11-21 07:00 19 15 13 82 250° 5 - - 29.95 0 None
2018-11-21 06:00 19 15 9 81 260° 8 - - 29.96 0 None
2018-11-21 05:00 19 14 8 79 260° 9 - - 29.97 0 None
2018-11-21 04:00 20 16 10 82 260° 9 - - 29.97 0 None
2018-11-21 03:00 22 19 8 84 270° 10 17 - 29.98 0 None
2018-11-21 02:00 23 19 15 83 240° 6 - - 29.98 0 None
2018-11-21 01:00 22 17 17 83 210° 3 - - 29.98 0 None
2018-11-21 00:00 21 17 - 83 220° 2 - - 29.98 0 None
2018-11-20 23:00 21 17 16 84 360° 3 - - 29.97 0 None
2018-11-20 22:00 20 17 15 85 10° 3 - - 29.96 0 1-hr Precip Total: 0.01"
2018-11-20 21:00 21 17 13 84 360° 6 - - 29.95 0 1-hr Precip Total: 0.01"
2018-11-20 20:00 21 17 14 85 350° 5 - - 29.94 0 1-hr Precip Total: 0.01"
2018-11-20 19:00 21 16 12 81 40° 7 - - 29.94 0 1-hr Precip Total: 0.01"
2018-11-20 18:00 22 16 13 77 50° 8 - - 29.94 0 1-hr Precip Total: 0.01"
2018-11-20 17:00 20 15 10 80 30° 8 - - 29.96 0 None
2018-11-20 16:00 20 15 10 79 60° 9 - - 29.98 0 None
2018-11-20 15:00 19 15 7 81 50° 12 - - 29.99 0 1-hr Precip Total: 0.01"
2018-11-20 14:00 19 15 9 84 40° 8 - - 30.00 0 1-hr Precip Total: 0.01"
2018-11-20 13:00 19 16 10 88 40° 7 - - 29.99 0 1-hr Precip Total: 0.02"
2018-11-20 12:00 19 16 10 87 40° 7 - - 30.01 0 1-hr Precip Total: 0.02"
2018-11-20 11:00 20 16 11 82 50° 7 - - 30.00 0 None

Support USWX by starting your Amazon purchase here.